sensor_id;sensor_type;location;lat;lon;timestamp;P1;durP1;ratioP1;P2;durP2;ratioP2
59054;SDS011;44845;51.444;7.460;2024-03-02T00:00:48;4.50;;;3.47;;
59054;SDS011;44845;51.444;7.460;2024-03-02T00:03:14;5.95;;;3.10;;
59054;SDS011;44845;51.444;7.460;2024-03-02T00:05:40;3.70;;;2.72;;
59054;SDS011;44845;51.444;7.460;2024-03-02T00:08:06;3.92;;;2.65;;
59054;SDS011;44845;51.444;7.460;2024-03-02T00:10:41;4.03;;;2.45;;
59054;SDS011;44845;51.444;7.460;2024-03-02T00:13:07;2.50;;;1.85;;
59054;SDS011;44845;51.444;7.460;2024-03-02T00:15:48;3.10;;;1.77;;
59054;SDS011;44845;51.444;7.460;2024-03-02T00:18:17;4.20;;;1.88;;
59054;SDS011;44845;51.444;7.460;2024-03-02T00:20:44;2.30;;;1.67;;
59054;SDS011;44845;51.444;7.460;2024-03-02T00:23:10;3.20;;;1.45;;
59054;SDS011;44845;51.444;7.460;2024-03-02T00:25:47;3.13;;;1.48;;
59054;SDS011;44845;51.444;7.460;2024-03-02T00:28:21;2.75;;;1.77;;
59054;SDS011;44845;51.444;7.460;2024-03-02T00:33:37;1.77;;;1.30;;
59054;SDS011;44845;51.444;7.460;2024-03-02T00:36:06;2.35;;;1.48;;
59054;SDS011;44845;51.444;7.460;2024-03-02T00:38:32;1.92;;;1.20;;
59054;SDS011;44845;51.444;7.460;2024-03-02T00:40:59;1.67;;;1.20;;
59054;SDS011;44845;51.444;7.460;2024-03-02T00:46:15;2.55;;;1.10;;
59054;SDS011;44845;51.444;7.460;2024-03-02T00:48:46;1.98;;;1.13;;
59054;SDS011;44845;51.444;7.460;2024-03-02T00:51:13;2.97;;;1.55;;
59054;SDS011;44845;51.444;7.460;2024-03-02T00:53:39;1.65;;;1.33;;
59054;SDS011;44845;51.444;7.460;2024-03-02T00:56:04;2.13;;;1.33;;
59054;SDS011;44845;51.444;7.460;2024-03-02T00:58:35;3.92;;;1.42;;
59054;SDS011;44845;51.444;7.460;2024-03-02T01:01:00;2.53;;;1.20;;
59054;SDS011;44845;51.444;7.460;2024-03-02T01:03:25;1.77;;;1.10;;
59054;SDS011;44845;51.444;7.460;2024-03-02T01:05:51;1.45;;;1.23;;
59054;SDS011;44845;51.444;7.460;2024-03-02T01:08:16;2.53;;;1.70;;
59054;SDS011;44845;51.444;7.460;2024-03-02T01:10:42;3.08;;;1.70;;
59054;SDS011;44845;51.444;7.460;2024-03-02T01:13:07;2.35;;;1.50;;
59054;SDS011;44845;51.444;7.460;2024-03-02T01:15:33;2.50;;;1.58;;
59054;SDS011;44845;51.444;7.460;2024-03-02T01:17:58;3.75;;;1.70;;
59054;SDS011;44845;51.444;7.460;2024-03-02T01:20:23;4.78;;;1.45;;
59054;SDS011;44845;51.444;7.460;2024-03-02T01:22:49;4.47;;;1.50;;
59054;SDS011;44845;51.444;7.460;2024-03-02T01:25:15;4.10;;;1.50;;
59054;SDS011;44845;51.444;7.460;2024-03-02T01:27:40;2.45;;;1.50;;
59054;SDS011;44845;51.444;7.460;2024-03-02T01:30:06;2.00;;;1.50;;
59054;SDS011;44845;51.444;7.460;2024-03-02T01:32:31;3.47;;;1.20;;
59054;SDS011;44845;51.444;7.460;2024-03-02T01:34:57;4.32;;;1.70;;
59054;SDS011;44845;51.444;7.460;2024-03-02T01:37:22;3.67;;;1.52;;
59054;SDS011;44845;51.444;7.460;2024-03-02T01:39:47;4.82;;;1.75;;
59054;SDS011;44845;51.444;7.460;2024-03-02T01:42:14;3.33;;;1.80;;
59054;SDS011;44845;51.444;7.460;2024-03-02T01:44:39;4.93;;;2.00;;
59054;SDS011;44845;51.444;7.460;2024-03-02T01:47:05;3.42;;;1.60;;
59054;SDS011;44845;51.444;7.460;2024-03-02T01:49:30;2.88;;;1.50;;
59054;SDS011;44845;51.444;7.460;2024-03-02T01:51:57;3.80;;;1.60;;
59054;SDS011;44845;51.444;7.460;2024-03-02T01:54:23;3.35;;;1.35;;
59054;SDS011;44845;51.444;7.460;2024-03-02T01:56:48;2.13;;;1.10;;
59054;SDS011;44845;51.444;7.460;2024-03-02T01:59:13;2.80;;;1.63;;
59054;SDS011;44845;51.444;7.460;2024-03-02T02:01:39;2.20;;;1.08;;
59054;SDS011;44845;51.444;7.460;2024-03-02T02:04:04;6.57;;;1.40;;
59054;SDS011;44845;51.444;7.460;2024-03-02T02:06:31;1.90;;;1.10;;
59054;SDS011;44845;51.444;7.460;2024-03-02T02:08:57;1.67;;;1.05;;
59054;SDS011;44845;51.444;7.460;2024-03-02T02:11:22;3.30;;;1.27;;
59054;SDS011;44845;51.444;7.460;2024-03-02T02:13:48;2.47;;;0.93;;
59054;SDS011;44845;51.444;7.460;2024-03-02T02:16:13;3.10;;;1.00;;
59054;SDS011;44845;51.444;7.460;2024-03-02T02:18:38;3.33;;;0.90;;
59054;SDS011;44845;51.444;7.460;2024-03-02T02:21:05;2.70;;;1.40;;
59054;SDS011;44845;51.444;7.460;2024-03-02T02:23:30;2.28;;;1.10;;
59054;SDS011;44845;51.444;7.460;2024-03-02T02:25:56;2.35;;;1.00;;
59054;SDS011;44845;51.444;7.460;2024-03-02T02:28:21;1.73;;;0.95;;
59054;SDS011;44845;51.444;7.460;2024-03-02T02:30:46;4.32;;;1.00;;
59054;SDS011;44845;51.444;7.460;2024-03-02T02:33:12;1.35;;;0.82;;
59054;SDS011;44845;51.444;7.460;2024-03-02T02:35:37;2.40;;;0.70;;
59054;SDS011;44845;51.444;7.460;2024-03-02T02:38:02;1.40;;;0.73;;
59054;SDS011;44845;51.444;7.460;2024-03-02T02:40:28;1.90;;;1.00;;
59054;SDS011;44845;51.444;7.460;2024-03-02T02:42:57;2.08;;;0.80;;
59054;SDS011;44845;51.444;7.460;2024-03-02T02:45:24;1.35;;;0.88;;
59054;SDS011;44845;51.444;7.460;2024-03-02T02:47:49;2.25;;;0.80;;
59054;SDS011;44845;51.444;7.460;2024-03-02T02:50:14;2.75;;;0.75;;
59054;SDS011;44845;51.444;7.460;2024-03-02T02:52:40;1.70;;;0.63;;
59054;SDS011;44845;51.444;7.460;2024-03-02T02:55:10;1.42;;;0.82;;
59054;SDS011;44845;51.444;7.460;2024-03-02T02:57:37;2.58;;;0.90;;
59054;SDS011;44845;51.444;7.460;2024-03-02T03:00:04;1.45;;;0.68;;
59054;SDS011;44845;51.444;7.460;2024-03-02T03:02:35;1.83;;;0.63;;
59054;SDS011;44845;51.444;7.460;2024-03-02T03:05:04;1.00;;;0.60;;
59054;SDS011;44845;51.444;7.460;2024-03-02T03:07:31;1.35;;;0.60;;
59054;SDS011;44845;51.444;7.460;2024-03-02T03:09:56;1.30;;;0.68;;
59054;SDS011;44845;51.444;7.460;2024-03-02T03:12:21;2.58;;;1.00;;
59054;SDS011;44845;51.444;7.460;2024-03-02T03:14:47;1.73;;;0.85;;
59054;SDS011;44845;51.444;7.460;2024-03-02T03:17:12;2.58;;;0.80;;
59054;SDS011;44845;51.444;7.460;2024-03-02T03:19:38;1.98;;;0.88;;
59054;SDS011;44845;51.444;7.460;2024-03-02T03:22:03;2.67;;;0.80;;
59054;SDS011;44845;51.444;7.460;2024-03-02T03:24:29;2.53;;;0.90;;
59054;SDS011;44845;51.444;7.460;2024-03-02T03:26:55;2.35;;;0.93;;
59054;SDS011;44845;51.444;7.460;2024-03-02T03:29:20;1.80;;;0.80;;
59054;SDS011;44845;51.444;7.460;2024-03-02T03:31:48;2.00;;;0.77;;
59054;SDS011;44845;51.444;7.460;2024-03-02T03:34:13;1.10;;;0.88;;
59054;SDS011;44845;51.444;7.460;2024-03-02T03:36:40;2.63;;;1.10;;
59054;SDS011;44845;51.444;7.460;2024-03-02T03:39:06;2.42;;;0.77;;
59054;SDS011;44845;51.444;7.460;2024-03-02T03:41:31;1.52;;;0.55;;
59054;SDS011;44845;51.444;7.460;2024-03-02T03:43:57;2.67;;;1.00;;
59054;SDS011;44845;51.444;7.460;2024-03-02T03:46:22;3.05;;;1.15;;
59054;SDS011;44845;51.444;7.460;2024-03-02T03:48:47;0.95;;;0.60;;
59054;SDS011;44845;51.444;7.460;2024-03-02T03:51:13;3.45;;;0.98;;
59054;SDS011;44845;51.444;7.460;2024-03-02T03:53:39;2.75;;;0.73;;
59054;SDS011;44845;51.444;7.460;2024-03-02T03:56:04;2.67;;;0.80;;
59054;SDS011;44845;51.444;7.460;2024-03-02T03:58:30;1.55;;;0.80;;
59054;SDS011;44845;51.444;7.460;2024-03-02T04:00:55;3.50;;;0.65;;
59054;SDS011;44845;51.444;7.460;2024-03-02T04:03:21;1.77;;;0.77;;
59054;SDS011;44845;51.444;7.460;2024-03-02T04:05:47;1.88;;;0.80;;
59054;SDS011;44845;51.444;7.460;2024-03-02T04:08:12;1.58;;;0.70;;
59054;SDS011;44845;51.444;7.460;2024-03-02T04:10:37;1.00;;;0.70;;
59054;SDS011;44845;51.444;7.460;2024-03-02T04:13:03;1.17;;;0.52;;
59054;SDS011;44845;51.444;7.460;2024-03-02T04:15:28;3.40;;;0.77;;
59054;SDS011;44845;51.444;7.460;2024-03-02T04:17:54;4.35;;;1.10;;
59054;SDS011;44845;51.444;7.460;2024-03-02T04:20:20;1.10;;;0.50;;
59054;SDS011;44845;51.444;7.460;2024-03-02T04:22:45;1.20;;;0.70;;
59054;SDS011;44845;51.444;7.460;2024-03-02T04:25:10;0.98;;;0.80;;
59054;SDS011;44845;51.444;7.460;2024-03-02T04:27:36;1.95;;;0.85;;
59054;SDS011;44845;51.444;7.460;2024-03-02T04:30:01;1.65;;;0.73;;
59054;SDS011;44845;51.444;7.460;2024-03-02T04:32:28;1.88;;;0.80;;
59054;SDS011;44845;51.444;7.460;2024-03-02T04:34:54;2.75;;;0.95;;
59054;SDS011;44845;51.444;7.460;2024-03-02T04:37:19;2.45;;;1.25;;
59054;SDS011;44845;51.444;7.460;2024-03-02T04:39:45;1.55;;;0.88;;
59054;SDS011;44845;51.444;7.460;2024-03-02T04:42:10;2.03;;;0.82;;
59054;SDS011;44845;51.444;7.460;2024-03-02T04:44:35;2.58;;;0.85;;
59054;SDS011;44845;51.444;7.460;2024-03-02T04:47:03;1.88;;;0.98;;
59054;SDS011;44845;51.444;7.460;2024-03-02T04:49:28;1.60;;;0.82;;
59054;SDS011;44845;51.444;7.460;2024-03-02T04:51:53;1.67;;;0.82;;
59054;SDS011;44845;51.444;7.460;2024-03-02T04:54:19;2.60;;;0.90;;
59054;SDS011;44845;51.444;7.460;2024-03-02T04:56:44;1.40;;;0.93;;
59054;SDS011;44845;51.444;7.460;2024-03-02T04:59:14;2.05;;;0.95;;
59054;SDS011;44845;51.444;7.460;2024-03-02T05:01:39;1.13;;;0.80;;
59054;SDS011;44845;51.444;7.460;2024-03-02T05:04:05;1.85;;;1.10;;
59054;SDS011;44845;51.444;7.460;2024-03-02T05:06:30;3.58;;;1.00;;
59054;SDS011;44845;51.444;7.460;2024-03-02T05:08:56;1.45;;;0.80;;
59054;SDS011;44845;51.444;7.460;2024-03-02T05:11:21;1.45;;;0.90;;
59054;SDS011;44845;51.444;7.460;2024-03-02T05:14:01;2.88;;;1.17;;
59054;SDS011;44845;51.444;7.460;2024-03-02T05:16:27;1.05;;;0.82;;
59054;SDS011;44845;51.444;7.460;2024-03-02T05:18:52;0.90;;;0.85;;
59054;SDS011;44845;51.444;7.460;2024-03-02T05:21:17;2.10;;;1.33;;
59054;SDS011;44845;51.444;7.460;2024-03-02T05:23:43;1.17;;;0.80;;
59054;SDS011;44845;51.444;7.460;2024-03-02T05:26:09;1.48;;;0.90;;
59054;SDS011;44845;51.444;7.460;2024-03-02T05:28:37;3.78;;;1.10;;
59054;SDS011;44845;51.444;7.460;2024-03-02T05:31:03;2.33;;;1.05;;
59054;SDS011;44845;51.444;7.460;2024-03-02T05:33:28;1.77;;;1.08;;
59054;SDS011;44845;51.444;7.460;2024-03-02T05:35:56;2.72;;;1.08;;
59054;SDS011;44845;51.444;7.460;2024-03-02T05:38:21;3.47;;;1.58;;
59054;SDS011;44845;51.444;7.460;2024-03-02T05:40:47;3.13;;;1.20;;
59054;SDS011;44845;51.444;7.460;2024-03-02T05:43:12;2.45;;;1.38;;
59054;SDS011;44845;51.444;7.460;2024-03-02T05:45:38;2.08;;;1.10;;
59054;SDS011;44845;51.444;7.460;2024-03-02T05:48:04;1.75;;;1.15;;
59054;SDS011;44845;51.444;7.460;2024-03-02T05:50:31;1.88;;;1.20;;
59054;SDS011;44845;51.444;7.460;2024-03-02T05:52:56;1.30;;;1.02;;
59054;SDS011;44845;51.444;7.460;2024-03-02T05:55:22;2.67;;;1.50;;
59054;SDS011;44845;51.444;7.460;2024-03-02T05:57:47;2.88;;;1.33;;
59054;SDS011;44845;51.444;7.460;2024-03-02T06:00:24;2.72;;;1.58;;
59054;SDS011;44845;51.444;7.460;2024-03-02T06:02:49;3.03;;;1.30;;
59054;SDS011;44845;51.444;7.460;2024-03-02T06:05:15;3.33;;;1.40;;
59054;SDS011;44845;51.444;7.460;2024-03-02T06:07:42;2.65;;;1.45;;
59054;SDS011;44845;51.444;7.460;2024-03-02T06:10:08;1.90;;;1.27;;
59054;SDS011;44845;51.444;7.460;2024-03-02T06:12:33;1.88;;;1.13;;
59054;SDS011;44845;51.444;7.460;2024-03-02T06:14:59;2.42;;;1.50;;
59054;SDS011;44845;51.444;7.460;2024-03-02T06:17:25;2.88;;;1.48;;
59054;SDS011;44845;51.444;7.460;2024-03-02T06:19:50;2.97;;;1.80;;
59054;SDS011;44845;51.444;7.460;2024-03-02T06:22:15;2.65;;;1.80;;
59054;SDS011;44845;51.444;7.460;2024-03-02T06:24:41;7.43;;;1.75;;
59054;SDS011;44845;51.444;7.460;2024-03-02T06:27:06;2.83;;;1.60;;
59054;SDS011;44845;51.444;7.460;2024-03-02T06:29:34;3.53;;;1.70;;
59054;SDS011;44845;51.444;7.460;2024-03-02T06:32:00;4.38;;;1.63;;
59054;SDS011;44845;51.444;7.460;2024-03-02T06:34:25;2.80;;;1.77;;
59054;SDS011;44845;51.444;7.460;2024-03-02T06:36:51;3.38;;;1.85;;
59054;SDS011;44845;51.444;7.460;2024-03-02T06:39:16;3.15;;;1.67;;
59054;SDS011;44845;51.444;7.460;2024-03-02T06:41:41;3.45;;;1.80;;
59054;SDS011;44845;51.444;7.460;2024-03-02T06:44:07;2.00;;;1.40;;
59054;SDS011;44845;51.444;7.460;2024-03-02T06:46:33;2.17;;;1.50;;
59054;SDS011;44845;51.444;7.460;2024-03-02T06:48:58;2.55;;;1.70;;
59054;SDS011;44845;51.444;7.460;2024-03-02T06:51:24;3.95;;;1.90;;
59054;SDS011;44845;51.444;7.460;2024-03-02T06:53:49;3.63;;;1.77;;
59054;SDS011;44845;51.444;7.460;2024-03-02T06:56:14;2.00;;;1.40;;
59054;SDS011;44845;51.444;7.460;2024-03-02T06:58:40;3.97;;;1.67;;
59054;SDS011;44845;51.444;7.460;2024-03-02T07:01:05;2.20;;;1.58;;
59054;SDS011;44845;51.444;7.460;2024-03-02T07:03:31;1.98;;;1.45;;
59054;SDS011;44845;51.444;7.460;2024-03-02T07:05:56;1.92;;;1.58;;
59054;SDS011;44845;51.444;7.460;2024-03-02T07:08:22;4.35;;;1.70;;
59054;SDS011;44845;51.444;7.460;2024-03-02T07:10:47;3.22;;;1.85;;
59054;SDS011;44845;51.444;7.460;2024-03-02T07:13:13;5.95;;;1.75;;
59054;SDS011;44845;51.444;7.460;2024-03-02T07:15:38;3.08;;;1.45;;
59054;SDS011;44845;51.444;7.460;2024-03-02T07:18:22;3.70;;;1.45;;
59054;SDS011;44845;51.444;7.460;2024-03-02T07:20:48;2.20;;;1.58;;
59054;SDS011;44845;51.444;7.460;2024-03-02T07:23:14;3.22;;;1.40;;
59054;SDS011;44845;51.444;7.460;2024-03-02T07:25:39;2.47;;;2.03;;
59054;SDS011;44845;51.444;7.460;2024-03-02T07:28:05;3.08;;;1.58;;
59054;SDS011;44845;51.444;7.460;2024-03-02T07:30:32;2.63;;;1.33;;
59054;SDS011;44845;51.444;7.460;2024-03-02T07:32:57;2.35;;;1.73;;
59054;SDS011;44845;51.444;7.460;2024-03-02T07:35:23;2.72;;;1.33;;
59054;SDS011;44845;51.444;7.460;2024-03-02T07:37:52;4.60;;;2.05;;
59054;SDS011;44845;51.444;7.460;2024-03-02T07:40:20;4.50;;;1.60;;
59054;SDS011;44845;51.444;7.460;2024-03-02T07:42:46;4.50;;;1.42;;
59054;SDS011;44845;51.444;7.460;2024-03-02T07:45:11;2.78;;;1.60;;
59054;SDS011;44845;51.444;7.460;2024-03-02T07:47:37;3.45;;;1.70;;
59054;SDS011;44845;51.444;7.460;2024-03-02T07:50:02;3.67;;;1.48;;
59054;SDS011;44845;51.444;7.460;2024-03-02T07:52:31;2.25;;;1.33;;
59054;SDS011;44845;51.444;7.460;2024-03-02T07:54:56;3.22;;;1.60;;
59054;SDS011;44845;51.444;7.460;2024-03-02T07:57:22;2.83;;;1.45;;
59054;SDS011;44845;51.444;7.460;2024-03-02T07:59:47;3.47;;;1.60;;
59054;SDS011;44845;51.444;7.460;2024-03-02T08:02:14;5.80;;;1.70;;
59054;SDS011;44845;51.444;7.460;2024-03-02T08:04:40;4.43;;;1.38;;
59054;SDS011;44845;51.444;7.460;2024-03-02T08:07:06;2.03;;;1.20;;
59054;SDS011;44845;51.444;7.460;2024-03-02T08:09:31;2.30;;;1.38;;
59054;SDS011;44845;51.444;7.460;2024-03-02T08:11:56;2.08;;;1.17;;
59054;SDS011;44845;51.444;7.460;2024-03-02T08:14:23;3.40;;;1.63;;
59054;SDS011;44845;51.444;7.460;2024-03-02T08:16:48;2.63;;;1.58;;
59054;SDS011;44845;51.444;7.460;2024-03-02T08:19:14;2.00;;;1.45;;
59054;SDS011;44845;51.444;7.460;2024-03-02T08:21:39;3.88;;;1.52;;
59054;SDS011;44845;51.444;7.460;2024-03-02T08:24:05;1.73;;;1.35;;
59054;SDS011;44845;51.444;7.460;2024-03-02T08:26:30;4.75;;;1.77;;
59054;SDS011;44845;51.444;7.460;2024-03-02T08:28:57;2.28;;;1.33;;
59054;SDS011;44845;51.444;7.460;2024-03-02T08:31:23;3.28;;;1.70;;
59054;SDS011;44845;51.444;7.460;2024-03-02T08:33:48;2.30;;;1.30;;
59054;SDS011;44845;51.444;7.460;2024-03-02T08:36:14;4.90;;;1.40;;
59054;SDS011;44845;51.444;7.460;2024-03-02T08:38:40;3.17;;;1.30;;
59054;SDS011;44845;51.444;7.460;2024-03-02T08:41:05;2.72;;;1.50;;
59054;SDS011;44845;51.444;7.460;2024-03-02T08:43:32;4.00;;;1.58;;
59054;SDS011;44845;51.444;7.460;2024-03-02T08:45:57;3.60;;;1.42;;
59054;SDS011;44845;51.444;7.460;2024-03-02T08:48:23;2.30;;;1.30;;
59054;SDS011;44845;51.444;7.460;2024-03-02T08:50:48;2.47;;;1.20;;
59054;SDS011;44845;51.444;7.460;2024-03-02T08:53:14;2.95;;;1.30;;
59054;SDS011;44845;51.444;7.460;2024-03-02T08:55:43;4.60;;;1.40;;
59054;SDS011;44845;51.444;7.460;2024-03-02T08:58:09;2.78;;;1.25;;
59054;SDS011;44845;51.444;7.460;2024-03-02T09:00:34;1.90;;;1.02;;
59054;SDS011;44845;51.444;7.460;2024-03-02T09:03:00;1.55;;;0.93;;
59054;SDS011;44845;51.444;7.460;2024-03-02T09:05:25;3.72;;;1.33;;
59054;SDS011;44845;51.444;7.460;2024-03-02T09:07:51;1.52;;;0.82;;
59054;SDS011;44845;51.444;7.460;2024-03-02T09:10:16;1.27;;;1.00;;
59054;SDS011;44845;51.444;7.460;2024-03-02T09:12:41;2.38;;;0.95;;
59054;SDS011;44845;51.444;7.460;2024-03-02T09:15:08;3.03;;;1.10;;
59054;SDS011;44845;51.444;7.460;2024-03-02T09:17:33;2.20;;;1.15;;
59054;SDS011;44845;51.444;7.460;2024-03-02T09:19:59;1.77;;;0.90;;
59054;SDS011;44845;51.444;7.460;2024-03-02T09:22:24;2.58;;;0.90;;
59054;SDS011;44845;51.444;7.460;2024-03-02T09:24:49;2.53;;;0.90;;
59054;SDS011;44845;51.444;7.460;2024-03-02T09:27:17;1.55;;;0.88;;
59054;SDS011;44845;51.444;7.460;2024-03-02T09:29:42;2.20;;;1.15;;
59054;SDS011;44845;51.444;7.460;2024-03-02T09:32:08;1.40;;;0.95;;
59054;SDS011;44845;51.444;7.460;2024-03-02T09:34:37;2.33;;;0.60;;
59054;SDS011;44845;51.444;7.460;2024-03-02T09:37:02;1.05;;;0.75;;
59054;SDS011;44845;51.444;7.460;2024-03-02T09:39:29;1.85;;;0.80;;
59054;SDS011;44845;51.444;7.460;2024-03-02T09:41:54;1.58;;;0.93;;
59054;SDS011;44845;51.444;7.460;2024-03-02T09:44:20;1.40;;;0.75;;
59054;SDS011;44845;51.444;7.460;2024-03-02T09:46:50;2.00;;;1.15;;
59054;SDS011;44845;51.444;7.460;2024-03-02T09:49:15;1.05;;;0.73;;
59054;SDS011;44845;51.444;7.460;2024-03-02T09:51:41;2.45;;;0.70;;
59054;SDS011;44845;51.444;7.460;2024-03-02T09:54:12;1.05;;;0.52;;
59054;SDS011;44845;51.444;7.460;2024-03-02T09:56:37;1.48;;;0.65;;
59054;SDS011;44845;51.444;7.460;2024-03-02T09:59:04;0.93;;;0.50;;
59054;SDS011;44845;51.444;7.460;2024-03-02T10:01:30;2.58;;;0.50;;
59054;SDS011;44845;51.444;7.460;2024-03-02T10:03:55;2.97;;;0.50;;
59054;SDS011;44845;51.444;7.460;2024-03-02T10:06:27;1.88;;;0.40;;
59054;SDS011;44845;51.444;7.460;2024-03-02T10:08:54;0.93;;;0.50;;
59054;SDS011;44845;51.444;7.460;2024-03-02T10:11:27;1.55;;;0.65;;
59054;SDS011;44845;51.444;7.460;2024-03-02T10:14:09;1.05;;;0.60;;
59054;SDS011;44845;51.444;7.460;2024-03-02T10:16:36;0.57;;;0.57;;
59054;SDS011;44845;51.444;7.460;2024-03-02T10:19:21;2.10;;;0.63;;
59054;SDS011;44845;51.444;7.460;2024-03-02T10:21:50;1.58;;;0.57;;
59054;SDS011;44845;51.444;7.460;2024-03-02T10:24:17;2.35;;;0.60;;
59054;SDS011;44845;51.444;7.460;2024-03-02T10:26:43;2.13;;;0.65;;
59054;SDS011;44845;51.444;7.460;2024-03-02T10:29:09;0.85;;;0.40;;
59054;SDS011;44845;51.444;7.460;2024-03-02T10:31:36;0.43;;;0.40;;
59054;SDS011;44845;51.444;7.460;2024-03-02T10:34:02;4.40;;;0.38;;
59054;SDS011;44845;51.444;7.460;2024-03-02T10:36:28;1.50;;;0.43;;
59054;SDS011;44845;51.444;7.460;2024-03-02T10:38:55;1.45;;;0.40;;
59054;SDS011;44845;51.444;7.460;2024-03-02T10:41:24;1.35;;;0.50;;
59054;SDS011;44845;51.444;7.460;2024-03-02T10:43:52;0.43;;;0.40;;
59054;SDS011;44845;51.444;7.460;2024-03-02T10:46:20;1.05;;;0.45;;
59054;SDS011;44845;51.444;7.460;2024-03-02T10:48:47;2.38;;;0.60;;
59054;SDS011;44845;51.444;7.460;2024-03-02T10:51:14;0.60;;;0.43;;
59054;SDS011;44845;51.444;7.460;2024-03-02T10:53:39;0.85;;;0.40;;
59054;SDS011;44845;51.444;7.460;2024-03-02T10:56:05;1.90;;;0.60;;
59054;SDS011;44845;51.444;7.460;2024-03-02T10:58:34;2.05;;;0.50;;
59054;SDS011;44845;51.444;7.460;2024-03-02T11:01:04;1.95;;;0.68;;
59054;SDS011;44845;51.444;7.460;2024-03-02T11:03:33;2.55;;;0.63;;
59054;SDS011;44845;51.444;7.460;2024-03-02T11:06:00;1.83;;;0.68;;
59054;SDS011;44845;51.444;7.460;2024-03-02T11:08:32;3.78;;;0.80;;
59054;SDS011;44845;51.444;7.460;2024-03-02T11:11:02;1.27;;;0.50;;
59054;SDS011;44845;51.444;7.460;2024-03-02T11:13:36;1.65;;;0.50;;
59054;SDS011;44845;51.444;7.460;2024-03-02T11:16:06;1.10;;;0.50;;
59054;SDS011;44845;51.444;7.460;2024-03-02T11:18:37;2.50;;;0.70;;
59054;SDS011;44845;51.444;7.460;2024-03-02T11:21:04;1.98;;;0.60;;
59054;SDS011;44845;51.444;7.460;2024-03-02T11:23:34;0.98;;;0.60;;
59054;SDS011;44845;51.444;7.460;2024-03-02T11:26:33;0.95;;;0.43;;
59054;SDS011;44845;51.444;7.460;2024-03-02T11:28:53;2.45;;;0.50;;
59054;SDS011;44845;51.444;7.460;2024-03-02T11:31:20;1.73;;;0.60;;
59054;SDS011;44845;51.444;7.460;2024-03-02T11:33:46;0.98;;;0.50;;
59054;SDS011;44845;51.444;7.460;2024-03-02T11:36:11;0.65;;;0.38;;
59054;SDS011;44845;51.444;7.460;2024-03-02T11:38:37;0.75;;;0.45;;
59054;SDS011;44845;51.444;7.460;2024-03-02T11:41:02;0.40;;;0.40;;
59054;SDS011;44845;51.444;7.460;2024-03-02T11:43:32;0.73;;;0.50;;
59054;SDS011;44845;51.444;7.460;2024-03-02T11:46:01;1.48;;;0.70;;
59054;SDS011;44845;51.444;7.460;2024-03-02T11:48:31;1.63;;;0.40;;
59054;SDS011;44845;51.444;7.460;2024-03-02T11:50:58;1.08;;;0.65;;
59054;SDS011;44845;51.444;7.460;2024-03-02T11:53:24;0.82;;;0.40;;
59054;SDS011;44845;51.444;7.460;2024-03-02T11:55:52;2.15;;;0.68;;
59054;SDS011;44845;51.444;7.460;2024-03-02T11:58:22;1.90;;;0.63;;
59054;SDS011;44845;51.444;7.460;2024-03-02T12:00:52;0.80;;;0.50;;
59054;SDS011;44845;51.444;7.460;2024-03-02T12:03:18;1.90;;;0.50;;
59054;SDS011;44845;51.444;7.460;2024-03-02T12:05:47;0.30;;;0.25;;
59054;SDS011;44845;51.444;7.460;2024-03-02T12:08:14;1.02;;;0.40;;
59054;SDS011;44845;51.444;7.460;2024-03-02T12:10:39;0.75;;;0.50;;
59054;SDS011;44845;51.444;7.460;2024-03-02T12:13:05;1.15;;;0.45;;
59054;SDS011;44845;51.444;7.460;2024-03-02T12:15:33;1.70;;;0.50;;
59054;SDS011;44845;51.444;7.460;2024-03-02T12:18:01;0.75;;;0.70;;
59054;SDS011;44845;51.444;7.460;2024-03-02T12:20:28;1.33;;;0.50;;
59054;SDS011;44845;51.444;7.460;2024-03-02T12:22:58;0.50;;;0.40;;
59054;SDS011;44845;51.444;7.460;2024-03-02T12:25:24;0.73;;;0.43;;
59054;SDS011;44845;51.444;7.460;2024-03-02T12:27:52;0.80;;;0.55;;
59054;SDS011;44845;51.444;7.460;2024-03-02T12:30:19;0.90;;;0.60;;
59054;SDS011;44845;51.444;7.460;2024-03-02T12:32:45;0.77;;;0.50;;
59054;SDS011;44845;51.444;7.460;2024-03-02T12:35:11;0.40;;;0.40;;
59054;SDS011;44845;51.444;7.460;2024-03-02T12:37:43;4.30;;;0.60;;
59054;SDS011;44845;51.444;7.460;2024-03-02T12:40:12;0.30;;;0.30;;
59054;SDS011;44845;51.444;7.460;2024-03-02T12:42:39;1.48;;;0.50;;
59054;SDS011;44845;51.444;7.460;2024-03-02T12:45:06;0.95;;;0.40;;
59054;SDS011;44845;51.444;7.460;2024-03-02T12:47:36;0.75;;;0.40;;
59054;SDS011;44845;51.444;7.460;2024-03-02T12:50:03;1.30;;;0.30;;
59054;SDS011;44845;51.444;7.460;2024-03-02T12:52:29;0.80;;;0.50;;
59054;SDS011;44845;51.444;7.460;2024-03-02T12:54:55;2.60;;;0.57;;
59054;SDS011;44845;51.444;7.460;2024-03-02T12:57:27;0.60;;;0.40;;
59054;SDS011;44845;51.444;7.460;2024-03-02T13:00:03;0.73;;;0.50;;
59054;SDS011;44845;51.444;7.460;2024-03-02T13:02:38;0.77;;;0.52;;
59054;SDS011;44845;51.444;7.460;2024-03-02T13:05:05;2.70;;;0.70;;
59054;SDS011;44845;51.444;7.460;2024-03-02T13:07:31;0.80;;;0.60;;
59054;SDS011;44845;51.444;7.460;2024-03-02T13:09:58;0.80;;;0.50;;
59054;SDS011;44845;51.444;7.460;2024-03-02T13:12:24;1.02;;;0.70;;
59054;SDS011;44845;51.444;7.460;2024-03-02T13:14:53;0.40;;;0.40;;
59054;SDS011;44845;51.444;7.460;2024-03-02T13:17:19;1.75;;;0.60;;
59054;SDS011;44845;51.444;7.460;2024-03-02T13:19:51;1.02;;;0.32;;
59054;SDS011;44845;51.444;7.460;2024-03-02T13:22:18;0.70;;;0.40;;
59054;SDS011;44845;51.444;7.460;2024-03-02T13:24:43;0.73;;;0.30;;
59054;SDS011;44845;51.444;7.460;2024-03-02T13:27:08;0.73;;;0.40;;
59054;SDS011;44845;51.444;7.460;2024-03-02T13:29:34;1.23;;;0.30;;
59054;SDS011;44845;51.444;7.460;2024-03-02T13:32:02;0.65;;;0.35;;
59054;SDS011;44845;51.444;7.460;2024-03-02T13:34:30;0.73;;;0.40;;
59054;SDS011;44845;51.444;7.460;2024-03-02T13:36:56;0.30;;;0.30;;
59054;SDS011;44845;51.444;7.460;2024-03-02T13:39:21;0.90;;;0.38;;
59054;SDS011;44845;51.444;7.460;2024-03-02T13:41:47;1.17;;;0.30;;
59054;SDS011;44845;51.444;7.460;2024-03-02T13:44:18;0.88;;;0.30;;
59054;SDS011;44845;51.444;7.460;2024-03-02T13:46:46;0.50;;;0.38;;
59054;SDS011;44845;51.444;7.460;2024-03-02T13:49:13;0.70;;;0.30;;
59054;SDS011;44845;51.444;7.460;2024-03-02T13:51:38;1.40;;;0.40;;
59054;SDS011;44845;51.444;7.460;2024-03-02T13:54:04;0.55;;;0.22;;
59054;SDS011;44845;51.444;7.460;2024-03-02T13:56:29;0.30;;;0.30;;
59054;SDS011;44845;51.444;7.460;2024-03-02T13:58:56;0.68;;;0.40;;
59054;SDS011;44845;51.444;7.460;2024-03-02T14:01:21;0.65;;;0.40;;
59054;SDS011;44845;51.444;7.460;2024-03-02T14:03:47;1.23;;;0.30;;
59054;SDS011;44845;51.444;7.460;2024-03-02T14:06:12;0.30;;;0.30;;
59054;SDS011;44845;51.444;7.460;2024-03-02T14:08:38;0.73;;;0.40;;
59054;SDS011;44845;51.444;7.460;2024-03-02T14:11:03;1.50;;;0.30;;
59054;SDS011;44845;51.444;7.460;2024-03-02T14:13:29;0.32;;;0.30;;
59054;SDS011;44845;51.444;7.460;2024-03-02T14:15:54;2.80;;;0.30;;
59054;SDS011;44845;51.444;7.460;2024-03-02T14:18:20;0.30;;;0.30;;
59054;SDS011;44845;51.444;7.460;2024-03-02T14:20:46;0.50;;;0.30;;
59054;SDS011;44845;51.444;7.460;2024-03-02T14:23:17;0.40;;;0.30;;
59054;SDS011;44845;51.444;7.460;2024-03-02T14:25:42;0.60;;;0.30;;
59054;SDS011;44845;51.444;7.460;2024-03-02T14:28:08;0.70;;;0.60;;
59054;SDS011;44845;51.444;7.460;2024-03-02T14:30:33;0.60;;;0.30;;
59054;SDS011;44845;51.444;7.460;2024-03-02T14:32:59;0.75;;;0.50;;
59054;SDS011;44845;51.444;7.460;2024-03-02T14:35:25;0.68;;;0.63;;
59054;SDS011;44845;51.444;7.460;2024-03-02T14:37:50;0.60;;;0.60;;
59054;SDS011;44845;51.444;7.460;2024-03-02T14:40:15;1.27;;;0.60;;
59054;SDS011;44845;51.444;7.460;2024-03-02T14:42:41;1.92;;;0.60;;
59054;SDS011;44845;51.444;7.460;2024-03-02T14:45:09;1.05;;;0.50;;
59054;SDS011;44845;51.444;7.460;2024-03-02T14:47:34;0.65;;;0.50;;
59054;SDS011;44845;51.444;7.460;2024-03-02T14:50:00;0.52;;;0.47;;